Time;durP1;ratioP1;P1;durP2;ratioP2;P2;SDS_P1;SDS_P2;PMS_P1;PMS_P2;Temp;Humidity;BMP_temperature;BMP_pressure;BME280_temperature;BME280_humidity;BME280_pressure;Samples;Min_cycle;Max_cycle;Signal;HPM_P1;HPM_P2
2022/06/12 00:00:58;;;;;;;8.35;5.05;;;19.50;99.90;;;;;;4998105;28;20253;-73
2022/06/12 00:03:48;;;;;;;9.73;4.93;;;19.50;99.90;;;;;;4997875;28;20226;-73
2022/06/12 00:06:36;;;;;;;8.75;5.25;;;19.50;99.90;;;;;;4994407;28;20282;-74
2022/06/12 00:09:25;;;;;;;9.60;5.43;;;19.50;99.90;;;;;;5004582;28;20723;-70
2022/06/12 00:12:15;;;;;;;9.15;4.97;;;19.30;99.90;;;;;;5003087;28;20221;-73
2022/06/12 00:15:05;;;;;;;8.52;5.45;;;19.30;99.90;;;;;;4997815;28;20219;-73
2022/06/12 00:17:55;;;;;;;10.82;5.63;;;19.10;99.90;;;;;;4997847;28;20229;-74
2022/06/12 00:20:43;;;;;;;7.97;5.05;;;19.30;99.90;;;;;;4999555;28;20227;-73
2022/06/12 00:23:32;;;;;;;11.75;5.45;;;19.30;99.90;;;;;;4997559;28;20221;-73
2022/06/12 00:26:24;;;;;;;9.18;5.30;;;19.30;99.90;;;;;;5006872;28;20215;-73
2022/06/12 00:29:17;;;;;;;12.63;5.40;;;19.10;99.90;;;;;;5000291;28;20587;-72
2022/06/12 00:32:08;;;;;;;9.52;5.20;;;19.10;99.90;;;;;;4997830;28;20933;-73
2022/06/12 00:34:57;;;;;;;11.68;5.68;;;19.10;99.90;;;;;;4999032;28;20641;-74
2022/06/12 00:37:46;;;;;;;7.38;5.43;;;19.20;99.90;;;;;;5012288;28;20230;-72
2022/06/12 00:40:34;;;;;;;8.30;5.88;;;19.20;99.90;;;;;;4999875;28;20253;-72
2022/06/12 00:43:27;;;;;;;11.48;5.68;;;19.20;99.90;;;;;;5002395;28;20222;-72
2022/06/12 00:46:42;;;;;;;8.85;6.00;;;19.10;99.90;;;;;;4995994;28;20765;-71
2022/06/12 00:49:34;;;;;;;9.40;5.60;;;19.10;99.90;;;;;;4999214;28;20218;-71
2022/06/12 00:52:28;;;;;;;10.43;6.30;;;18.90;99.90;;;;;;4997471;28;20247;-72
2022/06/12 00:55:24;;;;;;;10.68;5.20;;;18.90;99.90;;;;;;4997599;28;20238;-71
2022/06/12 00:58:17;;;;;;;8.27;5.72;;;18.80;99.90;;;;;;4994792;28;20222;-71
2022/06/12 01:01:10;;;;;;;9.73;5.82;;;18.90;99.90;;;;;;4999339;28;20901;-72
2022/06/12 01:07:16;;;;;;;11.35;6.30;;;18.80;99.90;;;;;;5005358;28;20733;-73
2022/06/12 01:10:09;;;;;;;10.82;6.13;;;18.70;99.90;;;;;;4992815;28;20272;-72
2022/06/12 01:13:01;;;;;;;10.75;6.78;;;18.90;99.90;;;;;;4989348;28;20226;-72
2022/06/12 01:15:52;;;;;;;13.45;6.80;;;18.80;99.90;;;;;;4999658;28;20235;-72
2022/06/12 01:18:50;;;;;;;12.90;6.60;;;18.70;99.90;;;;;;5009422;28;21039;-72
2022/06/12 01:22:26;;;;;;;11.15;6.68;;;18.70;99.90;;;;;;4995162;28;20281;-73
2022/06/12 01:25:39;;;;;;;10.82;6.63;;;18.60;99.90;;;;;;4995235;28;20222;-73
2022/06/12 01:28:49;;;;;;;10.07;6.75;;;18.60;99.90;;;;;;5000919;28;20222;-73
2022/06/12 01:31:47;;;;;;;10.93;6.97;;;18.60;99.90;;;;;;4997214;28;20234;-73
2022/06/12 01:34:41;;;;;;;9.32;6.50;;;18.60;99.90;;;;;;4995113;28;20240;-73
2022/06/12 01:37:42;;;;;;;10.23;7.55;;;18.50;99.90;;;;;;4999785;28;20328;-74
2022/06/12 01:40:37;;;;;;;12.32;8.30;;;18.40;99.90;;;;;;4994016;28;20678;-73
2022/06/12 01:43:35;;;;;;;13.02;8.13;;;18.40;99.90;;;;;;4998458;28;20223;-72
2022/06/12 01:46:32;;;;;;;14.20;8.27;;;18.50;99.90;;;;;;4997081;28;20227;-73
2022/06/12 01:49:27;;;;;;;12.30;7.88;;;18.50;99.90;;;;;;4993582;28;20229;-73
2022/06/12 01:52:24;;;;;;;12.50;8.20;;;18.60;99.90;;;;;;4998062;28;20394;-73
2022/06/12 01:55:17;;;;;;;12.82;7.75;;;18.50;99.90;;;;;;4992661;28;20222;-74
2022/06/12 01:58:13;;;;;;;12.10;7.85;;;18.30;99.90;;;;;;4996401;28;20248;-73
2022/06/12 02:01:09;;;;;;;13.43;8.30;;;18.40;99.90;;;;;;4995607;28;20790;-74
2022/06/12 02:04:05;;;;;;;11.32;8.10;;;18.50;99.90;;;;;;4993999;28;20234;-76
2022/06/12 02:07:00;;;;;;;12.98;7.53;;;18.30;99.90;;;;;;4997948;28;20229;-74
2022/06/12 02:09:54;;;;;;;13.77;8.77;;;18.30;99.90;;;;;;4997203;28;20222;-74
2022/06/12 02:15:58;;;;;;;14.15;7.93;;;18.40;99.90;;;;;;4996235;28;20218;-72
2022/06/12 02:18:51;;;;;;;10.88;7.80;;;18.40;99.90;;;;;;4995299;28;20765;-71
2022/06/12 02:21:48;;;;;;;12.45;8.30;;;18.40;99.90;;;;;;4996935;28;20228;-72
2022/06/12 02:24:41;;;;;;;11.05;8.30;;;18.30;99.90;;;;;;5013985;28;20214;-70
2022/06/12 02:27:34;;;;;;;12.50;8.68;;;18.40;99.90;;;;;;4999766;28;20237;-71
2022/06/12 02:30:30;;;;;;;14.38;8.30;;;18.30;99.90;;;;;;5006058;28;20225;-72
2022/06/12 02:33:23;;;;;;;11.88;8.15;;;18.30;99.90;;;;;;5000921;28;20246;-71
2022/06/12 02:36:17;;;;;;;13.93;8.63;;;18.30;99.90;;;;;;4996726;28;20325;-72
2022/06/12 02:39:14;;;;;;;10.95;9.07;;;18.30;99.90;;;;;;4997154;28;20795;-72
2022/06/12 02:42:07;;;;;;;14.68;9.52;;;18.10;99.90;;;;;;4996113;28;20223;-71
2022/06/12 02:45:00;;;;;;;16.92;9.18;;;18.10;99.90;;;;;;4998598;28;20284;-71
2022/06/12 02:47:49;;;;;;;15.27;9.57;;;18.20;99.90;;;;;;5002185;28;20234;-72
2022/06/12 02:50:46;;;;;;;14.23;9.55;;;18.30;99.90;;;;;;5000001;28;20214;-72
2022/06/12 02:53:58;;;;;;;17.08;9.48;;;18.20;99.90;;;;;;5011998;28;20218;-73
2022/06/12 02:56:59;;;;;;;16.13;9.55;;;18.30;99.90;;;;;;4993082;28;20226;-73
2022/06/12 02:59:58;;;;;;;13.90;10.20;;;18.30;99.90;;;;;;4996764;28;20237;-73
2022/06/12 03:02:52;;;;;;;15.90;10.85;;;18.20;99.90;;;;;;4997705;28;20841;-73
2022/06/12 03:05:47;;;;;;;18.27;11.07;;;18.30;99.90;;;;;;5005720;28;20233;-71
2022/06/12 03:08:38;;;;;;;18.17;12.20;;;18.30;99.90;;;;;;5001326;28;20214;-72
2022/06/12 03:11:30;;;;;;;17.85;14.55;;;18.40;99.90;;;;;;5000203;28;20231;-72
2022/06/12 03:14:23;;;;;;;21.25;14.48;;;18.30;99.90;;;;;;5004642;28;20229;-73
2022/06/12 03:17:12;;;;;;;18.73;15.32;;;18.30;99.90;;;;;;4998264;28;20250;-72
2022/06/12 03:20:01;;;;;;;20.58;15.43;;;18.30;99.90;;;;;;4997473;28;20246;-73
2022/06/12 03:23:00;;;;;;;21.80;15.27;;;18.40;99.90;;;;;;5003566;28;20234;-74
2022/06/12 03:25:53;;;;;;;18.20;14.18;;;18.50;99.90;;;;;;4998717;28;20231;-73
2022/06/12 03:28:51;;;;;;;18.45;14.13;;;18.70;99.90;;;;;;5000548;28;20218;-73
2022/06/12 03:31:50;;;;;;;18.75;13.50;;;18.70;99.90;;;;;;4999292;28;20710;-73
2022/06/12 03:34:45;;;;;;;16.30;12.65;;;18.70;99.90;;;;;;4996038;28;20221;-73
2022/06/12 03:37:40;;;;;;;15.07;12.15;;;18.60;99.90;;;;;;4998584;28;20214;-73
2022/06/12 03:40:38;;;;;;;16.80;12.07;;;18.60;99.90;;;;;;5013356;28;20238;-73
2022/06/12 03:43:35;;;;;;;15.68;12.27;;;18.60;99.90;;;;;;5000437;28;20257;-74
2022/06/12 03:46:32;;;;;;;15.27;12.40;;;18.60;99.90;;;;;;4999545;28;20226;-73
2022/06/12 03:49:31;;;;;;;14.77;12.65;;;18.60;99.90;;;;;;4999330;28;20264;-73
2022/06/12 03:52:25;;;;;;;14.35;11.68;;;18.70;99.90;;;;;;5000925;28;20234;-73
2022/06/12 03:55:21;;;;;;;19.23;12.63;;;18.90;99.90;;;;;;4997184;28;20211;-70
2022/06/12 03:58:12;;;;;;;14.40;11.50;;;19.10;99.90;;;;;;5001106;28;20232;-72
2022/06/12 04:01:02;;;;;;;13.45;11.02;;;19.30;99.90;;;;;;4994506;28;20963;-71
2022/06/12 04:03:53;;;;;;;16.42;10.48;;;19.50;99.90;;;;;;5002411;28;20231;-71
2022/06/12 04:06:44;;;;;;;12.63;10.00;;;19.60;99.90;;;;;;5007800;28;20218;-71
2022/06/12 04:09:38;;;;;;;14.73;9.25;;;19.80;99.90;;;;;;5006001;28;20736;-71
2022/06/12 04:12:30;;;;;;;12.75;8.95;;;19.80;99.90;;;;;;5003296;28;20214;-71
2022/06/12 04:15:23;;;;;;;12.82;9.02;;;20.00;99.90;;;;;;5000799;28;20214;-72
2022/06/12 04:18:12;;;;;;;13.27;8.52;;;19.80;99.90;;;;;;5004107;28;20214;-71
2022/06/12 04:21:05;;;;;;;12.43;7.68;;;19.90;99.90;;;;;;5005017;28;20378;-71
2022/06/12 04:24:03;;;;;;;12.13;8.23;;;20.10;99.90;;;;;;5002823;28;20416;-72
2022/06/12 04:26:56;;;;;;;13.27;8.15;;;20.20;99.90;;;;;;5014993;28;20329;-71
2022/06/12 04:29:52;;;;;;;11.55;8.27;;;20.40;99.90;;;;;;5005507;28;20233;-72
2022/06/12 04:32:41;;;;;;;9.90;6.75;;;20.40;99.90;;;;;;5002627;28;20249;-72
2022/06/12 04:35:30;;;;;;;9.23;6.13;;;20.40;99.90;;;;;;5002981;28;20258;-71
2022/06/12 04:38:19;;;;;;;10.38;6.30;;;20.50;99.90;;;;;;5004722;28;20349;-72
2022/06/12 04:41:13;;;;;;;10.35;5.60;;;20.50;99.90;;;;;;5000314;28;20244;-71
2022/06/12 04:44:01;;;;;;;8.63;5.38;;;20.60;99.90;;;;;;5002134;28;20222;-71
2022/06/12 04:46:53;;;;;;;9.50;5.18;;;20.70;99.90;;;;;;5000121;28;21018;-73
2022/06/12 04:49:41;;;;;;;7.20;5.20;;;20.80;99.90;;;;;;5002706;28;20309;-73
2022/06/12 04:52:31;;;;;;;7.22;4.90;;;20.90;99.90;;;;;;5005098;28;20229;-72
2022/06/12 04:55:20;;;;;;;9.10;4.78;;;21.10;99.90;;;;;;5001343;28;20313;-74
2022/06/12 04:58:09;;;;;;;7.25;4.50;;;21.20;99.90;;;;;;4997677;28;20594;-74
2022/06/12 05:00:59;;;;;;;5.95;4.32;;;21.20;99.90;;;;;;5000912;28;20271;-74
2022/06/12 05:03:47;;;;;;;4.90;3.97;;;21.10;99.90;;;;;;4998674;28;20240;-73
2022/06/12 05:06:37;;;;;;;8.65;4.15;;;21.20;99.90;;;;;;4999075;28;20700;-73
2022/06/12 05:09:32;;;;;;;7.15;3.92;;;21.30;99.90;;;;;;5003993;28;20249;-73
2022/06/12 05:12:21;;;;;;;5.05;3.05;;;21.30;99.90;;;;;;5000480;28;20223;-74
2022/06/12 05:15:13;;;;;;;4.70;3.40;;;21.40;99.90;;;;;;4999215;28;20233;-74
2022/06/12 05:18:02;;;;;;;5.90;3.35;;;21.50;99.90;;;;;;5001049;28;20226;-71
2022/06/12 05:20:50;;;;;;;4.22;3.50;;;21.60;99.90;;;;;;4995953;28;20230;-73
2022/06/12 05:23:39;;;;;;;7.60;4.03;;;21.60;99.90;;;;;;4999732;28;20246;-74
2022/06/12 05:26:30;;;;;;;4.85;3.63;;;21.80;99.90;;;;;;4994261;28;20226;-74
2022/06/12 05:29:27;;;;;;;5.95;3.97;;;21.70;99.90;;;;;;4996668;28;20230;-74
2022/06/12 05:32:21;;;;;;;6.65;3.92;;;21.80;99.90;;;;;;5005308;28;20236;-75
2022/06/12 05:35:13;;;;;;;6.15;3.22;;;22.00;99.90;;;;;;5003444;28;20236;-74
2022/06/12 05:38:02;;;;;;;4.68;3.05;;;22.00;99.90;;;;;;5000547;28;20242;-73
2022/06/12 05:40:51;;;;;;;4.90;2.72;;;22.20;99.90;;;;;;5001534;28;20230;-76
2022/06/12 05:43:41;;;;;;;5.07;2.50;;;22.20;99.90;;;;;;5000802;28;20241;-75
2022/06/12 05:46:30;;;;;;;2.67;2.33;;;22.30;99.90;;;;;;4998856;28;20233;-73
2022/06/12 05:49:20;;;;;;;7.13;2.40;;;22.20;99.90;;;;;;5001843;28;20914;-73
2022/06/12 05:52:09;;;;;;;3.80;2.30;;;22.40;99.90;;;;;;5002590;28;20627;-71
2022/06/12 05:54:57;;;;;;;3.17;2.40;;;22.40;99.90;;;;;;4999286;28;20217;-72
2022/06/12 05:57:46;;;;;;;4.57;2.47;;;22.50;99.90;;;;;;4998836;28;20219;-72
2022/06/12 06:00:36;;;;;;;4.30;2.30;;;22.60;99.90;;;;;;4997805;28;20242;-73
2022/06/12 06:03:25;;;;;;;5.03;2.42;;;22.50;99.90;;;;;;4996693;28;20221;-73
2022/06/12 06:06:22;;;;;;;4.40;2.60;;;22.60;99.90;;;;;;5000626;28;20226;-73
2022/06/12 06:09:11;;;;;;;2.83;2.15;;;22.70;99.90;;;;;;5000600;28;20230;-72
2022/06/12 06:12:00;;;;;;;6.15;2.67;;;22.80;99.90;;;;;;4999438;28;20243;-72
2022/06/12 06:14:48;;;;;;;4.47;2.63;;;22.90;99.90;;;;;;5004164;28;20237;-73
2022/06/12 06:17:38;;;;;;;5.95;2.97;;;23.10;99.90;;;;;;5000798;28;20226;-71
2022/06/12 06:20:29;;;;;;;2.88;2.38;;;23.20;99.90;;;;;;4998246;28;20301;-70
2022/06/12 06:23:20;;;;;;;4.88;2.60;;;24.40;98.30;;;;;;4999982;28;20222;-71
2022/06/12 06:26:09;;;;;;;4.85;2.85;;;24.80;95.10;;;;;;5002948;28;20225;-71
2022/06/12 06:28:57;;;;;;;4.10;2.55;;;24.80;94.40;;;;;;5001976;28;20620;-70
2022/06/12 06:31:46;;;;;;;5.18;2.60;;;24.90;94.20;;;;;;5000658;28;20568;-71
2022/06/12 06:34:35;;;;;;;4.95;2.72;;;24.60;94.30;;;;;;5003752;28;20222;-71
2022/06/12 06:37:23;;;;;;;5.70;3.22;;;24.40;96.20;;;;;;4999449;28;20234;-71
2022/06/12 06:40:15;;;;;;;5.72;2.90;;;24.10;96.20;;;;;;5001855;28;20259;-72
2022/06/12 06:43:04;;;;;;;4.55;3.03;;;24.10;98.20;;;;;;5005289;28;20298;-73
2022/06/12 06:49:05;;;;;;;5.30;3.25;;;24.80;96.80;;;;;;4999702;28;20657;-72
2022/06/12 06:51:53;;;;;;;4.63;2.70;;;25.20;94.00;;;;;;5002378;28;20226;-73
2022/06/12 06:54:42;;;;;;;5.53;2.90;;;25.20;92.90;;;;;;5004579;28;20218;-73
2022/06/12 06:57:35;;;;;;;4.15;2.88;;;25.00;92.90;;;;;;5003791;28;20724;-73
2022/06/12 07:00:27;;;;;;;5.88;2.88;;;25.00;94.30;;;;;;5001934;28;20265;-73
2022/06/12 07:03:21;;;;;;;6.65;3.00;;;24.90;93.40;;;;;;5002937;28;20241;-77
2022/06/12 07:06:11;;;;;;;5.30;2.80;;;24.80;91.50;;;;;;4999714;28;20292;-76
2022/06/12 07:08:59;;;;;;;5.10;2.95;;;24.80;92.60;;;;;;5008084;28;20218;-73
2022/06/12 07:11:48;;;;;;;4.95;2.70;;;24.90;92.50;;;;;;5001884;28;20234;-78
2022/06/12 07:14:38;;;;;;;3.22;2.70;;;25.30;90.20;;;;;;5005479;28;20222;-73
2022/06/12 07:17:26;;;;;;;5.18;2.30;;;25.40;86.50;;;;;;5009376;28;20249;-74
2022/06/12 07:20:17;;;;;;;3.92;2.47;;;25.20;83.60;;;;;;5005330;28;20252;-73
2022/06/12 07:23:08;;;;;;;2.63;2.42;;;25.40;84.30;;;;;;5006817;28;20214;-72
2022/06/12 07:26:02;;;;;;;6.75;2.97;;;25.90;82.30;;;;;;5002783;28;20229;-75
2022/06/12 07:28:51;;;;;;;3.22;2.60;;;25.80;82.60;;;;;;5002121;28;20641;-76
2022/06/12 07:31:45;;;;;;;7.75;3.10;;;25.80;82.40;;;;;;5002052;28;20236;-76
2022/06/12 07:34:34;;;;;;;3.63;2.70;;;25.50;85.80;;;;;;4997120;28;20661;-76
2022/06/12 07:37:24;;;;;;;4.40;3.17;;;25.40;87.10;;;;;;5008799;28;20535;-76
2022/06/12 07:40:19;;;;;;;6.18;2.92;;;25.10;86.70;;;;;;5008705;28;20226;-76
2022/06/12 07:43:08;;;;;;;7.57;2.97;;;24.80;89.80;;;;;;5000801;28;20222;-73
2022/06/12 07:45:58;;;;;;;5.45;2.95;;;24.80;90.10;;;;;;5002779;28;20305;-73
2022/06/12 11:34:30;;;;;;;4.80;3.97;;;40.30;44.90;;;;;;5038649;27;20556;-72
2022/06/12 14:03:48;;;;;;;5.10;3.90;;;28.90;60.80;;;;;;5043419;27;20607;-75
2022/06/12 14:06:39;;;;;;;4.95;3.83;;;28.70;61.60;;;;;;5048167;28;20229;-74
2022/06/12 14:09:30;;;;;;;7.85;3.60;;;28.90;63.00;;;;;;5037587;28;20321;-73
2022/06/12 14:12:19;;;;;;;5.03;3.42;;;29.10;63.00;;;;;;5055438;28;20223;-74
2022/06/12 14:15:26;;;;;;;4.30;3.20;;;28.70;61.00;;;;;;5065242;28;20230;-75
2022/06/12 14:18:26;;;;;;;4.28;3.50;;;28.60;61.50;;;;;;5056481;28;20226;-73
2022/06/12 14:21:21;;;;;;;5.18;3.28;;;28.40;61.20;;;;;;5077663;28;20215;-75
2022/06/12 14:24:26;;;;;;;4.63;3.30;;;28.20;61.40;;;;;;5065038;28;20234;-75
2022/06/12 14:27:24;;;;;;;6.50;3.80;;;28.10;61.60;;;;;;5080115;28;20223;-77
2022/06/12 14:30:33;;;;;;;5.07;3.17;;;28.30;62.80;;;;;;5077768;28;20227;-75
2022/06/12 14:33:39;;;;;;;5.20;3.53;;;27.90;61.00;;;;;;5082349;28;20574;-75
2022/06/12 14:36:35;;;;;;;4.75;3.17;;;27.90;61.60;;;;;;5082393;28;20281;-78
2022/06/12 14:39:32;;;;;;;4.40;3.10;;;27.90;61.30;;;;;;5082121;28;20220;-74
2022/06/12 14:42:21;;;;;;;6.40;3.15;;;27.70;62.00;;;;;;5079433;28;20509;-77
2022/06/12 14:45:12;;;;;;;3.90;3.50;;;27.80;63.10;;;;;;5080736;28;20278;-75
2022/06/12 14:48:02;;;;;;;4.38;3.05;;;27.80;63.10;;;;;;5075887;28;20305;-75
2022/06/12 14:50:51;;;;;;;5.38;3.47;;;27.80;63.00;;;;;;5074353;28;20224;-74
2022/06/12 14:53:41;;;;;;;7.20;5.45;;;27.90;62.80;;;;;;5073754;28;20244;-74
2022/06/12 14:56:31;;;;;;;4.75;4.00;;;27.90;63.40;;;;;;5077102;28;20227;-74
2022/06/12 14:59:22;;;;;;;6.85;3.30;;;27.90;62.80;;;;;;5076878;28;20365;-73
2022/06/12 15:02:17;;;;;;;4.88;3.08;;;27.90;63.00;;;;;;5076281;28;20234;-74
2022/06/12 15:05:16;;;;;;;18.67;3.75;;;27.90;62.00;;;;;;5081855;28;20877;-74
2022/06/12 15:08:05;;;;;;;5.70;3.33;;;27.80;61.90;;;;;;5063890;28;20227;-73
2022/06/12 15:10:57;;;;;;;5.75;2.97;;;27.70;61.80;;;;;;5078621;28;20234;-74
2022/06/12 15:13:46;;;;;;;5.35;2.78;;;27.70;60.80;;;;;;5070971;28;20224;-75
2022/06/12 15:16:35;;;;;;;5.40;2.80;;;27.70;60.90;;;;;;5065883;28;20216;-74
2022/06/12 15:19:24;;;;;;;8.38;3.20;;;27.60;61.80;;;;;;5069637;28;20223;-74
2022/06/12 15:22:15;;;;;;;3.45;2.55;;;27.60;62.20;;;;;;5049581;28;20250;-75
2022/06/12 15:25:04;;;;;;;5.78;3.15;;;27.50;61.40;;;;;;5063905;28;20235;-74
2022/06/12 15:31:07;;;;;;;5.70;2.92;;;27.40;61.70;;;;;;5064919;28;20224;-75
2022/06/12 15:33:56;;;;;;;4.90;3.00;;;27.40;62.30;;;;;;5068441;28;20228;-77
2022/06/12 15:36:45;;;;;;;7.40;3.75;;;27.20;60.50;;;;;;5065999;28;20228;-74
2022/06/12 15:39:33;;;;;;;4.78;3.00;;;27.20;61.80;;;;;;5069874;28;20228;-75
2022/06/12 15:42:22;;;;;;;5.60;2.95;;;27.20;62.50;;;;;;5077357;28;20227;-76
2022/06/12 15:45:15;;;;;;;3.10;2.47;;;27.20;61.40;;;;;;5050600;28;20224;-74
2022/06/12 15:48:03;;;;;;;5.25;2.63;;;27.10;61.40;;;;;;5046536;28;20224;-75
2022/06/12 15:50:52;;;;;;;6.75;3.08;;;27.00;60.60;;;;;;5050892;28;20609;-75
2022/06/12 15:53:45;;;;;;;5.45;2.80;;;26.90;61.90;;;;;;5065880;28;20543;-75
2022/06/12 15:56:33;;;;;;;4.07;2.58;;;26.90;61.80;;;;;;5063525;28;20220;-76
2022/06/12 15:59:24;;;;;;;3.78;2.60;;;26.90;60.10;;;;;;5065495;28;20224;-72
2022/06/12 16:02:17;;;;;;;4.15;2.38;;;26.90;60.40;;;;;;5063284;28;20232;-74
2022/06/12 16:05:07;;;;;;;3.80;2.38;;;26.90;59.90;;;;;;5074875;28;20650;-72
2022/06/12 16:07:56;;;;;;;3.22;2.10;;;26.80;60.50;;;;;;5061847;28;20220;-72
2022/06/12 16:10:45;;;;;;;5.22;2.60;;;26.90;60.30;;;;;;5060155;28;20213;-72
2022/06/12 16:13:33;;;;;;;4.78;2.20;;;26.80;59.90;;;;;;5041096;28;20379;-72
2022/06/12 16:16:22;;;;;;;3.72;2.35;;;26.60;59.20;;;;;;5061000;28;20699;-73
2022/06/12 16:19:12;;;;;;;3.80;2.30;;;26.60;59.70;;;;;;5060908;28;20227;-74
2022/06/12 16:22:00;;;;;;;5.90;2.63;;;26.60;60.90;;;;;;5061842;28;20224;-72
2022/06/12 16:24:49;;;;;;;6.53;2.50;;;26.60;60.20;;;;;;5049330;28;20334;-73
2022/06/12 16:27:37;;;;;;;4.38;2.58;;;26.60;60.20;;;;;;5063851;28;20216;-73
2022/06/12 16:30:26;;;;;;;8.73;2.70;;;26.60;61.00;;;;;;5064572;28;20259;-74
2022/06/12 16:33:17;;;;;;;6.85;3.00;;;26.50;59.90;;;;;;5061019;28;20226;-75
2022/06/12 16:36:09;;;;;;;3.95;2.50;;;26.50;60.90;;;;;;5062005;28;20220;-72
2022/06/12 16:38:59;;;;;;;5.07;2.35;;;26.40;61.20;;;;;;5065454;28;20216;-73
2022/06/12 16:41:49;;;;;;;6.60;2.92;;;26.40;59.50;;;;;;5047917;28;20208;-79
2022/06/12 16:44:37;;;;;;;4.75;2.95;;;26.40;60.00;;;;;;5052111;28;20579;-75
2022/06/12 16:47:26;;;;;;;3.75;2.70;;;26.50;60.50;;;;;;5058568;28;20312;-74
2022/06/12 16:50:15;;;;;;;6.50;2.97;;;26.40;58.90;;;;;;5061550;28;20300;-74
2022/06/12 16:53:05;;;;;;;4.85;2.63;;;26.40;59.30;;;;;;5059573;28;20748;-71
2022/06/12 16:55:54;;;;;;;4.75;2.42;;;26.30;61.20;;;;;;5034243;28;20224;-72
2022/06/12 16:58:42;;;;;;;7.10;3.05;;;26.30;60.70;;;;;;5064731;28;20255;-71
2022/06/12 17:01:32;;;;;;;6.70;2.85;;;26.20;60.50;;;;;;5066207;28;20302;-72
2022/06/12 17:04:21;;;;;;;6.15;2.35;;;26.10;61.00;;;;;;5061534;28;20289;-72
2022/06/12 17:07:11;;;;;;;5.07;2.67;;;26.10;59.10;;;;;;5058444;28;20220;-74
2022/06/12 17:10:01;;;;;;;4.60;2.58;;;26.10;59.90;;;;;;5057284;28;20251;-74
2022/06/12 17:12:50;;;;;;;4.43;2.40;;;26.10;60.10;;;;;;5064882;28;20782;-73
2022/06/12 17:15:39;;;;;;;3.78;2.20;;;26.10;59.20;;;;;;5061296;28;20230;-76
2022/06/12 17:21:34;;;;;;;4.40;2.45;;;26.00;59.00;;;;;;5052288;28;20591;-74
2022/06/12 17:24:22;;;;;;;4.40;2.40;;;26.00;60.00;;;;;;5063446;28;20227;-74
2022/06/12 17:27:13;;;;;;;9.40;7.50;;;26.00;59.50;;;;;;5049017;28;20232;-75
2022/06/12 17:30:02;;;;;;;8.68;5.03;;;25.90;61.00;;;;;;5060973;28;20303;-74
2022/06/12 17:32:50;;;;;;;7.50;3.67;;;25.80;60.00;;;;;;5060330;28;20240;-75
2022/06/12 17:35:40;;;;;;;12.45;9.18;;;25.80;60.10;;;;;;5060087;28;20227;-74
2022/06/12 17:38:28;;;;;;;5.95;3.83;;;25.80;60.90;;;;;;5063870;28;20361;-74
2022/06/12 17:41:17;;;;;;;6.60;3.08;;;25.80;61.80;;;;;;5062774;28;20228;-74
2022/06/12 17:44:07;;;;;;;7.78;3.00;;;25.70;62.20;;;;;;5061929;28;20250;-74
2022/06/12 17:46:56;;;;;;;4.38;2.60;;;25.70;61.80;;;;;;5046058;28;20222;-75
2022/06/12 17:49:45;;;;;;;4.35;2.97;;;25.60;62.30;;;;;;5061973;28;20224;-74
2022/06/12 17:52:39;;;;;;;3.38;2.33;;;25.60;63.10;;;;;;5065022;28;20227;-75
2022/06/12 17:55:28;;;;;;;5.28;2.42;;;25.50;62.40;;;;;;5062299;28;20241;-75
2022/06/12 17:58:17;;;;;;;4.00;2.60;;;25.50;63.30;;;;;;5061015;28;20231;-75
2022/06/12 18:01:09;;;;;;;4.68;2.80;;;25.40;62.40;;;;;;5049073;28;20220;-74
2022/06/12 18:03:57;;;;;;;3.70;2.50;;;25.30;62.60;;;;;;5056602;28;20291;-74
2022/06/12 18:06:46;;;;;;;6.35;3.00;;;25.30;63.50;;;;;;5063750;28;20394;-75
2022/06/12 18:09:35;;;;;;;4.35;2.85;;;25.20;62.50;;;;;;5058019;28;20229;-73
2022/06/12 18:12:24;;;;;;;6.93;2.60;;;25.20;62.30;;;;;;5037538;28;20223;-76
2022/06/12 18:21:27;;;;;;;8.18;2.83;;;25.00;64.20;;;;;;5047129;28;20236;-75
2022/06/12 18:24:19;;;;;;;4.65;2.80;;;24.90;64.00;;;;;;5061212;28;20228;-74
2022/06/12 18:27:08;;;;;;;4.00;2.72;;;24.80;64.30;;;;;;5048685;28;20226;-73
2022/06/12 18:29:56;;;;;;;6.25;3.00;;;24.80;64.80;;;;;;5046080;28;20227;-74
2022/06/12 18:32:45;;;;;;;7.10;3.10;;;24.70;65.30;;;;;;5043032;28;20252;-74
2022/06/12 18:35:38;;;;;;;6.15;3.38;;;24.70;65.40;;;;;;5063005;28;20220;-74
2022/06/12 18:38:27;;;;;;;7.00;3.38;;;24.60;65.80;;;;;;5044410;28;20227;-74
2022/06/12 18:41:16;;;;;;;8.05;3.50;;;24.50;66.90;;;;;;5060502;28;20228;-74
2022/06/12 18:44:07;;;;;;;6.28;3.08;;;24.50;67.20;;;;;;5061339;28;20244;-73
2022/06/12 18:46:56;;;;;;;7.93;3.33;;;24.50;67.30;;;;;;5064124;28;20242;-74
2022/06/12 18:49:46;;;;;;;6.43;3.00;;;24.40;67.40;;;;;;5063443;28;20278;-72
2022/06/12 18:52:36;;;;;;;6.07;3.35;;;24.40;68.40;;;;;;5053978;28;20278;-74
2022/06/12 18:55:25;;;;;;;7.95;3.10;;;24.30;68.20;;;;;;5066520;28;20228;-73
2022/06/12 18:58:18;;;;;;;5.35;3.05;;;24.30;68.80;;;;;;5064027;28;20224;-73
2022/06/12 19:01:07;;;;;;;6.32;3.35;;;24.20;69.00;;;;;;5073453;28;20559;-74
2022/06/12 19:04:00;;;;;;;6.43;2.92;;;24.20;69.60;;;;;;5063134;28;20235;-74
2022/06/12 19:06:49;;;;;;;5.63;3.40;;;24.10;69.80;;;;;;5036114;28;20220;-74
2022/06/12 19:09:40;;;;;;;7.28;3.15;;;24.20;70.20;;;;;;5053244;28;20240;-73
2022/06/12 19:12:29;;;;;;;7.13;3.10;;;24.20;70.20;;;;;;5067184;28;20224;-71
2022/06/12 19:15:38;;;;;;;8.38;3.53;;;24.10;70.60;;;;;;5070117;28;20590;-73
2022/06/12 19:18:27;;;;;;;6.40;4.10;;;24.10;72.00;;;;;;5066313;28;20228;-74
2022/06/12 19:21:15;;;;;;;6.07;3.63;;;24.10;71.80;;;;;;5067179;28;20224;-73
2022/06/12 19:24:04;;;;;;;6.45;3.65;;;24.00;72.30;;;;;;5053799;28;20231;-74
2022/06/12 19:26:54;;;;;;;8.40;4.55;;;23.90;72.70;;;;;;5078218;28;20236;-74
2022/06/12 19:29:43;;;;;;;9.52;4.50;;;23.80;73.30;;;;;;5065876;28;20993;-75
2022/06/12 19:32:31;;;;;;;8.20;4.55;;;23.70;73.80;;;;;;5070821;28;20228;-75
2022/06/12 19:35:21;;;;;;;7.05;4.40;;;23.70;74.30;;;;;;5063392;28;20223;-74
2022/06/12 19:38:09;;;;;;;8.13;4.78;;;23.70;75.10;;;;;;5068593;28;20221;-75
2022/06/12 19:40:58;;;;;;;10.05;5.00;;;23.60;75.60;;;;;;5063498;28;20231;-74
2022/06/12 19:43:48;;;;;;;8.95;5.03;;;23.60;76.70;;;;;;5064767;28;20236;-73
2022/06/12 19:46:36;;;;;;;9.07;5.05;;;23.50;76.70;;;;;;5062323;28;20232;-74
2022/06/12 19:49:25;;;;;;;8.60;4.65;;;23.50;77.60;;;;;;5055292;28;20231;-75
2022/06/12 19:52:16;;;;;;;8.68;5.53;;;23.30;78.30;;;;;;5055791;28;20230;-74
2022/06/12 19:55:07;;;;;;;11.02;5.20;;;23.30;79.30;;;;;;5050287;28;20235;-74
2022/06/12 19:58:02;;;;;;;8.48;5.20;;;23.30;79.80;;;;;;5065906;28;20535;-72
2022/06/12 20:00:53;;;;;;;8.90;5.38;;;23.20;80.40;;;;;;5064351;28;20683;-73
2022/06/12 20:03:42;;;;;;;10.13;4.75;;;23.10;81.30;;;;;;5063661;28;20220;-74
2022/06/12 20:09:37;;;;;;;7.57;4.65;;;23.10;79.00;;;;;;5068338;28;20230;-73
2022/06/12 20:12:27;;;;;;;8.93;4.75;;;23.20;77.50;;;;;;5064880;28;20235;-74
2022/06/12 20:15:18;;;;;;;8.85;4.68;;;23.20;77.50;;;;;;5046237;28;20326;-74
2022/06/12 20:18:17;;;;;;;12.02;4.80;;;23.20;77.90;;;;;;5054466;28;20882;-74
2022/06/12 20:21:26;;;;;;;6.63;4.03;;;23.20;78.90;;;;;;5053534;28;20630;-74
2022/06/12 20:24:15;;;;;;;7.55;4.63;;;23.20;79.70;;;;;;5063464;28;20216;-73
2022/06/12 20:27:05;;;;;;;8.57;4.57;;;23.20;80.00;;;;;;5059331;28;20231;-74
2022/06/12 20:29:56;;;;;;;7.15;4.72;;;23.10;79.90;;;;;;5063533;28;20690;-74
2022/06/12 20:32:45;;;;;;;8.60;4.55;;;23.10;79.60;;;;;;5068216;28;20706;-74
2022/06/12 20:35:39;;;;;;;6.47;4.40;;;23.10;80.10;;;;;;5064199;28;20231;-74
2022/06/12 20:38:28;;;;;;;8.73;4.45;;;23.00;80.70;;;;;;5067288;28;20228;-73
2022/06/12 20:41:18;;;;;;;8.68;4.72;;;22.90;80.90;;;;;;5050979;28;20232;-73
2022/06/12 20:44:09;;;;;;;8.75;4.90;;;22.90;81.30;;;;;;5052633;28;20262;-73
2022/06/12 20:46:58;;;;;;;8.15;4.65;;;23.00;81.70;;;;;;5055078;28;20225;-72
2022/06/12 20:49:47;;;;;;;9.27;5.03;;;22.90;81.90;;;;;;5047374;28;20735;-73
2022/06/12 20:52:40;;;;;;;11.23;5.20;;;22.90;82.50;;;;;;5064640;28;20267;-73
2022/06/12 20:55:29;;;;;;;9.88;5.55;;;22.90;82.90;;;;;;5031151;28;20240;-75
2022/06/12 20:58:21;;;;;;;9.32;4.75;;;22.80;84.00;;;;;;5055104;28;20220;-73
2022/06/12 21:01:10;;;;;;;10.02;4.57;;;22.80;84.00;;;;;;5069145;28;20232;-73
2022/06/12 21:03:58;;;;;;;7.50;4.45;;;22.80;83.10;;;;;;5064755;28;20211;-74
2022/06/12 21:06:48;;;;;;;9.32;4.68;;;22.80;83.00;;;;;;5059174;28;20251;-74
2022/06/12 21:09:38;;;;;;;6.63;4.20;;;22.80;82.60;;;;;;5048470;28;20255;-72
2022/06/12 21:12:32;;;;;;;10.20;4.78;;;22.70;82.50;;;;;;5060675;28;20247;-73
2022/06/12 21:15:21;;;;;;;8.13;4.60;;;22.70;82.90;;;;;;5053407;28;20587;-73
2022/06/12 21:18:10;;;;;;;8.55;4.85;;;22.80;85.00;;;;;;5063618;28;20674;-74
2022/06/12 21:20:58;;;;;;;7.70;4.55;;;22.80;85.90;;;;;;5060230;28;20519;-73
2022/06/12 21:23:48;;;;;;;8.52;4.65;;;22.70;86.50;;;;;;5065657;28;20223;-74
2022/06/12 21:26:38;;;;;;;8.52;4.32;;;22.80;85.30;;;;;;5049353;28;20228;-72